Minot Air Force Base
KMIB : rendu visible

Aérodrome :











RETROUVEZ-NOUS SUR...

 
LOGIN :

S'inscrire | Disclaimer

   EN    FR    IT 

 









Légende :    VFR   VFR Marginal   IFR   IFR Intensif   IFR Très Intensif
Visi : 
Plafond : 
>= 8 km
>= 3000ft
5 à 8 km
1000 à 3000 ft
1500m à 5 km
500 à 1000 ft
800 à 1500m
200 à 500 ft
< 800m
< 200 ft
Symboles :   Orages  Brouillard  Fortes neiges  Fortes précipitations  Vent > 20 kt






- Altitude de l'aérodrome : 1667 ft


KMIB - Minot Air Force Base

DERNIER METAR :
  • 191056Z AUTO 25008KT 10SM CLR 04/00 A2953 RMK AO2 SLP012 T00370000 $

METARs EXPIRÉS :
  • 190956Z AUTO 26011KT 10SM CLR 05/00 A2952 RMK AO2 SLP009 T00490001 $
  • 190856Z AUTO 27014KT 10SM CLR 06/00 A2952 RMK AO2 SLP009 T00591002 52008 $

TAF AMD TAF KMIB
Valide du 18 à 22h jusqu'au 19 à 23h UTC


182225Z 1822/1923 30012G18KT 9999 SCT100 BKN200 QNH2939INS
BECMG 1901/1902 26009KT 9999 SCT080 BKN100 WS014/29032KT QNH2975INS
BECMG 1914/1915 26015G20KT 9999 BKN025 QNH2982INS TX13/1822Z TNM01/1912Z LAST NO AMDS AFT 1823 NEXT 2109



MET'MAP, la Météo Aéronautique d'un coup d'oeil ! - Copyright ORBIFLY Décembre 2007 - Disclaimer

ORBIFLY MET'MAP TEAM :

Programmation & Développement : Alexandra Zaïnal
Conception & Développement : Baudouin d'Aumeries
Co-Programmation & Développement : Marc-Olivier Méhu
Soutien technique & logistique : Manuel Goepfert

Contact : metmap@orbifly.com




SOURCES & CREDITS :

   NOAA       Earth
Advisory